NKS1378 KFLL-KMCO
Flight info
| Callsign | NKS1378 |
|---|---|
| Flight time | 0h 33m |
| Altitude | 19000 |
| Route | FRSBE2 WAPOM MUNGI1 |
| Aircraft | A321/M-SDE3FGHIRWY/LB1 |
Departure
| Time | 2026-04-20 22:32 |
|---|---|
| Airport | Fort Lauderdale Hollywood International Airport (KFLL) |
Arrival
| Time | 2026-04-20 23:06 |
|---|---|
| Airport | Orlando International Airport (KMCO) |
| Time | Latitude | Longitude | Altitude | Speed | Heading |
|---|---|---|---|---|---|
| 2026-04-20 22:14 | 26.06935 | -80.14613 | 12 ft | 0 kts | 90° |
| 2026-04-20 22:23 | 26.06935 | -80.14618 | 12 ft | 2 kts | 90° |
| 2026-04-20 22:23 | 26.06935 | -80.14629 | 12 ft | 1 kts | 90° |
| 2026-04-20 22:23 | 26.06932 | -80.14645 | 12 ft | 2 kts | 60° |
| 2026-04-20 22:23 | 26.06922 | -80.14658 | 12 ft | 2 kts | 36° |
| 2026-04-20 22:24 | 26.06909 | -80.14666 | 12 ft | 2 kts | 11° |
| 2026-04-20 22:24 | 26.06894 | -80.14666 | 12 ft | 2 kts | 345° |
| 2026-04-20 22:24 | 26.06881 | -80.14659 | 12 ft | 0 kts | 322° |
| 2026-04-20 22:24 | 26.06877 | -80.14655 | 12 ft | 1 kts | 317° |
| 2026-04-20 22:25 | 26.06875 | -80.14654 | 12 ft | 0 kts | 318° |
| 2026-04-20 22:26 | 26.06885 | -80.14663 | 12 ft | 5 kts | 318° |
| 2026-04-20 22:26 | 26.06926 | -80.14706 | 12 ft | 8 kts | 317° |
| 2026-04-20 22:27 | 26.06946 | -80.14833 | 12 ft | 11 kts | 308° |
| 2026-04-20 22:27 | 26.07003 | -80.14895 | 12 ft | 11 kts | 316° |
| 2026-04-20 22:27 | 26.07062 | -80.14959 | 12 ft | 12 kts | 315° |
| 2026-04-20 22:27 | 26.07124 | -80.15028 | 12 ft | 15 kts | 314° |
| 2026-04-20 22:28 | 26.07211 | -80.15115 | 12 ft | 16 kts | 335° |
| 2026-04-20 22:28 | 26.07326 | -80.15127 | 12 ft | 16 kts | 1° |
| 2026-04-20 22:28 | 26.07443 | -80.15124 | 12 ft | 16 kts | 359° |
| 2026-04-20 22:28 | 26.07542 | -80.15137 | 12 ft | 12 kts | 323° |
| 2026-04-20 22:29 | 26.07564 | -80.15243 | 12 ft | 18 kts | 271° |
| 2026-04-20 22:29 | 26.07564 | -80.15387 | 12 ft | 20 kts | 270° |
| 2026-04-20 22:29 | 26.07566 | -80.15559 | 12 ft | 21 kts | 270° |
| 2026-04-20 22:29 | 26.07567 | -80.15723 | 12 ft | 21 kts | 271° |
| 2026-04-20 22:30 | 26.07567 | -80.15884 | 12 ft | 20 kts | 268° |
| 2026-04-20 22:30 | 26.07567 | -80.16041 | 12 ft | 19 kts | 271° |
| 2026-04-20 22:30 | 26.07569 | -80.16192 | 12 ft | 19 kts | 271° |
| 2026-04-20 22:30 | 26.07569 | -80.16373 | 12 ft | 27 kts | 271° |
| 2026-04-20 22:31 | 26.07570 | -80.16581 | 12 ft | 25 kts | 269° |
| 2026-04-20 22:31 | 26.07621 | -80.16642 | 12 ft | 11 kts | 357° |
| 2026-04-20 22:31 | 26.07689 | -80.16625 | 12 ft | 8 kts | 58° |
| 2026-04-20 22:31 | 26.07695 | -80.16529 | 12 ft | 31 kts | 90° |
| 2026-04-20 22:32 | 26.07693 | -80.15993 | 12 ft | 104 kts | 90° |
| 2026-04-20 22:32 | 26.07686 | -80.14935 | 17 ft | 164 kts | 88° |
| 2026-04-20 22:32 | 26.07667 | -80.13630 | 569 ft | 172 kts | 88° |
| 2026-04-20 22:32 | 26.07605 | -80.12327 | 1370 ft | 170 kts | 89° |
| 2026-04-20 22:33 | 26.07516 | -80.11032 | 2013 ft | 167 kts | 86° |
| 2026-04-20 22:33 | 26.07731 | -80.09768 | 2253 ft | 174 kts | 65° |
| 2026-04-20 22:33 | 26.08245 | -80.08468 | 2482 ft | 189 kts | 62° |
| 2026-04-20 22:33 | 26.09056 | -80.07266 | 2740 ft | 202 kts | 39° |
| 2026-04-20 22:34 | 26.10364 | -80.06545 | 2961 ft | 222 kts | 21° |
| 2026-04-20 22:34 | 26.11903 | -80.05962 | 3282 ft | 239 kts | 21° |
| 2026-04-20 22:34 | 26.13507 | -80.05336 | 3750 ft | 250 kts | 21° |
| 2026-04-20 22:34 | 26.15215 | -80.04896 | 4384 ft | 256 kts | 4° |
| 2026-04-20 22:35 | 26.16958 | -80.05147 | 5038 ft | 261 kts | 345° |
| 2026-04-20 22:35 | 26.18713 | -80.05804 | 5714 ft | 264 kts | 342° |
| 2026-04-20 22:35 | 26.20453 | -80.06495 | 6383 ft | 267 kts | 341° |
| 2026-04-20 22:35 | 26.22070 | -80.07482 | 7018 ft | 273 kts | 318° |
| 2026-04-20 22:36 | 26.23160 | -80.09232 | 7706 ft | 278 kts | 294° |
| 2026-04-20 22:36 | 26.23848 | -80.11220 | 8399 ft | 280 kts | 292° |
| 2026-04-20 22:36 | 26.24542 | -80.13249 | 9069 ft | 282 kts | 292° |
| 2026-04-20 22:36 | 26.25304 | -80.15263 | 9729 ft | 283 kts | 296° |
| 2026-04-20 22:37 | 26.26221 | -80.17194 | 10375 ft | 284 kts | 301° |
| 2026-04-20 22:37 | 26.27298 | -80.19136 | 10716 ft | 298 kts | 302° |
| 2026-04-20 22:37 | 26.28435 | -80.21138 | 10987 ft | 313 kts | 303° |
| 2026-04-20 22:37 | 26.29615 | -80.23209 | 11249 ft | 328 kts | 303° |
| 2026-04-20 22:38 | 26.30869 | -80.25413 | 11559 ft | 340 kts | 303° |
| 2026-04-20 22:38 | 26.32147 | -80.27660 | 12103 ft | 344 kts | 302° |
| 2026-04-20 22:38 | 26.33424 | -80.29909 | 12663 ft | 347 kts | 302° |
| 2026-04-20 22:38 | 26.34711 | -80.32178 | 13242 ft | 349 kts | 302° |
| 2026-04-20 22:39 | 26.36008 | -80.34464 | 13828 ft | 351 kts | 302° |
| 2026-04-20 22:39 | 26.37311 | -80.36764 | 14404 ft | 352 kts | 302° |
| 2026-04-20 22:39 | 26.38621 | -80.39075 | 14959 ft | 354 kts | 301° |
| 2026-04-20 22:39 | 26.39935 | -80.41399 | 15517 ft | 355 kts | 301° |
| 2026-04-20 22:40 | 26.41250 | -80.43723 | 16049 ft | 357 kts | 301° |
| 2026-04-20 22:40 | 26.42579 | -80.46076 | 16563 ft | 359 kts | 301° |
| 2026-04-20 22:40 | 26.43914 | -80.48444 | 16981 ft | 364 kts | 301° |
| 2026-04-20 22:40 | 26.45250 | -80.50813 | 17455 ft | 366 kts | 301° |
| 2026-04-20 22:41 | 26.46624 | -80.53233 | 17959 ft | 367 kts | 302° |
| 2026-04-20 22:41 | 26.48321 | -80.55393 | 18399 ft | 374 kts | 317° |
| 2026-04-20 22:41 | 26.50526 | -80.56982 | 18850 ft | 382 kts | 331° |
| 2026-04-20 22:41 | 26.53033 | -80.57967 | 19108 ft | 386 kts | 339° |
| 2026-04-20 22:42 | 26.55616 | -80.58792 | 19117 ft | 385 kts | 340° |
| 2026-04-20 22:42 | 26.58187 | -80.59595 | 19119 ft | 384 kts | 340° |
| 2026-04-20 22:42 | 26.60765 | -80.60403 | 19126 ft | 384 kts | 340° |
| 2026-04-20 22:42 | 26.63364 | -80.61221 | 19126 ft | 384 kts | 340° |
| 2026-04-20 22:43 | 26.65938 | -80.62035 | 19126 ft | 383 kts | 340° |
| 2026-04-20 22:43 | 26.68518 | -80.62853 | 19132 ft | 383 kts | 340° |
| 2026-04-20 22:43 | 26.71075 | -80.63666 | 19131 ft | 383 kts | 340° |
| 2026-04-20 22:43 | 26.73644 | -80.64483 | 19131 ft | 382 kts | 340° |
| 2026-04-20 22:44 | 26.76222 | -80.65303 | 19137 ft | 382 kts | 339° |
| 2026-04-20 22:44 | 26.78771 | -80.66115 | 19138 ft | 382 kts | 339° |
| 2026-04-20 22:44 | 26.81344 | -80.66935 | 19137 ft | 381 kts | 339° |
| 2026-04-20 22:44 | 26.83874 | -80.67744 | 19140 ft | 382 kts | 339° |
| 2026-04-20 22:45 | 26.86465 | -80.68570 | 19133 ft | 381 kts | 339° |
| 2026-04-20 22:45 | 26.89008 | -80.69382 | 19135 ft | 382 kts | 339° |
| 2026-04-20 22:45 | 26.91568 | -80.70231 | 19141 ft | 381 kts | 338° |
| 2026-04-20 22:45 | 26.94079 | -80.71164 | 19141 ft | 381 kts | 337° |
| 2026-04-20 22:46 | 26.96609 | -80.72120 | 19146 ft | 380 kts | 337° |
| 2026-04-20 22:46 | 26.99122 | -80.73071 | 19143 ft | 380 kts | 337° |
| 2026-04-20 22:46 | 27.01619 | -80.74017 | 19143 ft | 380 kts | 337° |
| 2026-04-20 22:46 | 27.04122 | -80.74966 | 19147 ft | 380 kts | 337° |
| 2026-04-20 22:47 | 27.06658 | -80.75925 | 19140 ft | 380 kts | 337° |
| 2026-04-20 22:47 | 27.09153 | -80.76871 | 19139 ft | 379 kts | 337° |
| 2026-04-20 22:47 | 27.11641 | -80.77814 | 19144 ft | 379 kts | 337° |
| 2026-04-20 22:47 | 27.14148 | -80.78763 | 19139 ft | 378 kts | 337° |
| 2026-04-20 22:48 | 27.16669 | -80.79720 | 19136 ft | 378 kts | 337° |
| 2026-04-20 22:48 | 27.19156 | -80.80663 | 19152 ft | 378 kts | 337° |
| 2026-04-20 22:48 | 27.21644 | -80.81609 | 19142 ft | 378 kts | 337° |
| 2026-04-20 22:48 | 27.24148 | -80.82558 | 19148 ft | 378 kts | 337° |
| 2026-04-20 22:49 | 27.26664 | -80.83515 | 19150 ft | 378 kts | 337° |
| 2026-04-20 22:49 | 27.29143 | -80.84456 | 19154 ft | 378 kts | 336° |
| 2026-04-20 22:49 | 27.31642 | -80.85395 | 19155 ft | 379 kts | 338° |
| 2026-04-20 22:49 | 27.34183 | -80.86214 | 19037 ft | 380 kts | 340° |
| 2026-04-20 22:50 | 27.36747 | -80.86980 | 18786 ft | 377 kts | 341° |
| 2026-04-20 22:50 | 27.39284 | -80.87730 | 18521 ft | 375 kts | 341° |
| 2026-04-20 22:50 | 27.41798 | -80.88475 | 18213 ft | 374 kts | 341° |
| 2026-04-20 22:50 | 27.44338 | -80.89228 | 17803 ft | 371 kts | 341° |
| 2026-04-20 22:51 | 27.46816 | -80.89965 | 17355 ft | 369 kts | 341° |
| 2026-04-20 22:51 | 27.49310 | -80.90708 | 16885 ft | 368 kts | 341° |
| 2026-04-20 22:51 | 27.51766 | -80.91441 | 16413 ft | 366 kts | 342° |
| 2026-04-20 22:51 | 27.54242 | -80.92178 | 15932 ft | 365 kts | 342° |
| 2026-04-20 22:52 | 27.56691 | -80.92909 | 15450 ft | 364 kts | 342° |
| 2026-04-20 22:52 | 27.59155 | -80.93644 | 14975 ft | 362 kts | 343° |
| 2026-04-20 22:52 | 27.61574 | -80.94365 | 14511 ft | 360 kts | 343° |
| 2026-04-20 22:52 | 27.64009 | -80.95091 | 14033 ft | 358 kts | 343° |
| 2026-04-20 22:53 | 27.66409 | -80.95808 | 13568 ft | 357 kts | 343° |
| 2026-04-20 22:53 | 27.68813 | -80.96525 | 13103 ft | 355 kts | 343° |
| 2026-04-20 22:53 | 27.71197 | -80.97237 | 12629 ft | 353 kts | 343° |
| 2026-04-20 22:53 | 27.73581 | -80.97950 | 12155 ft | 351 kts | 344° |
| 2026-04-20 22:54 | 27.75942 | -80.98656 | 11679 ft | 350 kts | 344° |
| 2026-04-20 22:54 | 27.78276 | -80.99354 | 11203 ft | 349 kts | 344° |
| 2026-04-20 22:54 | 27.80625 | -81.00056 | 10759 ft | 346 kts | 345° |
| 2026-04-20 22:54 | 27.82940 | -81.00750 | 10520 ft | 336 kts | 345° |
| 2026-04-20 22:55 | 27.85150 | -81.01411 | 10375 ft | 325 kts | 345° |
| 2026-04-20 22:55 | 27.87306 | -81.02057 | 10190 ft | 315 kts | 345° |
| 2026-04-20 22:55 | 27.89417 | -81.02690 | 10027 ft | 305 kts | 345° |
| 2026-04-20 22:55 | 27.91436 | -81.03295 | 9928 ft | 293 kts | 345° |
| 2026-04-20 22:56 | 27.93356 | -81.03897 | 9585 ft | 282 kts | 342° |
| 2026-04-20 22:56 | 27.95163 | -81.04642 | 9141 ft | 273 kts | 334° |
| 2026-04-20 22:56 | 27.96787 | -81.05777 | 8547 ft | 272 kts | 325° |
| 2026-04-20 22:56 | 27.98274 | -81.07053 | 7939 ft | 271 kts | 323° |
| 2026-04-20 22:57 | 27.99658 | -81.08530 | 7311 ft | 271 kts | 315° |
| 2026-04-20 22:57 | 28.00908 | -81.10101 | 6703 ft | 270 kts | 313° |
| 2026-04-20 22:57 | 28.02138 | -81.11698 | 6102 ft | 269 kts | 313° |
| 2026-04-20 22:57 | 28.03354 | -81.13298 | 5500 ft | 268 kts | 313° |
| 2026-04-20 22:58 | 28.04559 | -81.14918 | 4911 ft | 266 kts | 313° |
| 2026-04-20 22:58 | 28.05727 | -81.16522 | 4344 ft | 265 kts | 313° |
| 2026-04-20 22:58 | 28.06879 | -81.18127 | 4006 ft | 263 kts | 316° |
| 2026-04-20 22:58 | 28.08159 | -81.19557 | 3946 ft | 253 kts | 323° |
| 2026-04-20 22:59 | 28.09458 | -81.20832 | 3937 ft | 238 kts | 324° |
| 2026-04-20 22:59 | 28.10702 | -81.22044 | 3948 ft | 238 kts | 324° |
| 2026-04-20 22:59 | 28.11966 | -81.23292 | 3948 ft | 241 kts | 323° |
| 2026-04-20 22:59 | 28.13219 | -81.24554 | 3946 ft | 241 kts | 323° |
| 2026-04-20 23:00 | 28.14466 | -81.25822 | 3940 ft | 241 kts | 323° |
| 2026-04-20 23:00 | 28.15724 | -81.27106 | 3943 ft | 242 kts | 322° |
| 2026-04-20 23:00 | 28.16960 | -81.28375 | 3955 ft | 242 kts | 323° |
| 2026-04-20 23:00 | 28.18212 | -81.29663 | 3958 ft | 242 kts | 323° |
| 2026-04-20 23:01 | 28.19458 | -81.30941 | 3958 ft | 242 kts | 323° |
| 2026-04-20 23:01 | 28.20758 | -81.32175 | 3949 ft | 239 kts | 334° |
| 2026-04-20 23:01 | 28.22309 | -81.32628 | 3773 ft | 230 kts | 4° |
| 2026-04-20 23:01 | 28.23900 | -81.32564 | 3538 ft | 228 kts | 5° |
| 2026-04-20 23:02 | 28.25493 | -81.32539 | 3328 ft | 225 kts | 4° |
| 2026-04-20 23:02 | 28.27037 | -81.32540 | 3061 ft | 220 kts | 4° |
| 2026-04-20 23:02 | 28.28539 | -81.32549 | 2719 ft | 213 kts | 4° |
| 2026-04-20 23:02 | 28.30026 | -81.32560 | 2336 ft | 210 kts | 4° |
| 2026-04-20 23:03 | 28.31473 | -81.32575 | 2032 ft | 204 kts | 4° |
| 2026-04-20 23:03 | 28.32848 | -81.32589 | 1849 ft | 192 kts | 4° |
| 2026-04-20 23:03 | 28.34160 | -81.32603 | 1535 ft | 182 kts | 4° |
| 2026-04-20 23:03 | 28.35381 | -81.32617 | 1309 ft | 167 kts | 5° |
| 2026-04-20 23:04 | 28.36493 | -81.32629 | 1057 ft | 158 kts | 4° |
| 2026-04-20 23:04 | 28.37570 | -81.32642 | 800 ft | 147 kts | 5° |
| 2026-04-20 23:04 | 28.38557 | -81.32648 | 568 ft | 138 kts | 4° |
| 2026-04-20 23:04 | 28.39479 | -81.32655 | 392 ft | 130 kts | 4° |
| 2026-04-20 23:05 | 28.40415 | -81.32664 | 284 ft | 134 kts | 3° |
| 2026-04-20 23:05 | 28.41343 | -81.32669 | 149 ft | 130 kts | 4° |
| 2026-04-20 23:05 | 28.42192 | -81.32674 | 94 ft | 107 kts | 1° |
| 2026-04-20 23:05 | 28.42777 | -81.32671 | 94 ft | 65 kts | 360° |
| 2026-04-20 23:06 | 28.43028 | -81.32623 | 94 ft | 18 kts | 44° |
| 2026-04-20 23:06 | 28.43061 | -81.32460 | 94 ft | 22 kts | 89° |
| 2026-04-20 23:06 | 28.43057 | -81.32280 | 93 ft | 22 kts | 89° |
| 2026-04-20 23:06 | 28.43068 | -81.32101 | 91 ft | 22 kts | 78° |
| 2026-04-20 23:07 | 28.43151 | -81.31956 | 90 ft | 21 kts | 56° |
| 2026-04-20 23:07 | 28.43235 | -81.31812 | 87 ft | 21 kts | 54° |
| 2026-04-20 23:07 | 28.43277 | -81.31661 | 87 ft | 20 kts | 97° |
| 2026-04-20 23:07 | 28.43307 | -81.31574 | 87 ft | 10 kts | 15° |
| 2026-04-20 23:08 | 28.43335 | -81.31564 | 87 ft | 0 kts | 17° |